Time;durP1;ratioP1;P1;durP2;ratioP2;P2;SDS_P1;SDS_P2;PMS_P1;PMS_P2;Temp;Humidity;BMP_temperature;BMP_pressure;BME280_temperature;BME280_humidity;BME280_pressure;Samples;Min_cycle;Max_cycle;Signal;HPM_P1;HPM_P2
2023/01/22 00:01:36;;;;;;;5.82;3.17;;;0.80;99.90;;;;;;4172785;28;20045;-80
2023/01/22 00:03:39;;;;;;;7.13;3.22;;;0.70;99.90;;;;;;4170132;28;20096;-80
2023/01/22 00:05:39;;;;;;;8.32;3.47;;;1.70;99.90;;;;;;4151740;28;20073;-81
2023/01/22 00:07:41;;;;;;;10.00;4.03;;;1.10;99.90;;;;;;4168861;28;20104;-80
2023/01/22 00:09:43;;;;;;;9.70;4.68;;;0.70;99.90;;;;;;4168631;28;20418;-81
2023/01/22 00:11:45;;;;;;;14.52;4.47;;;0.70;99.90;;;;;;4169207;28;20056;-80
2023/01/22 00:13:46;;;;;;;10.50;4.47;;;1.30;99.90;;;;;;4169049;28;20041;-81
2023/01/22 00:15:49;;;;;;;11.38;5.53;;;0.70;99.90;;;;;;4173950;28;20518;-82
2023/01/22 00:17:50;;;;;;;11.77;5.03;;;0.70;99.90;;;;;;4168354;28;20518;-80
2023/01/22 00:19:52;;;;;;;10.77;5.25;;;1.10;99.90;;;;;;4170269;28;20494;-80
2023/01/22 00:21:56;;;;;;;12.75;5.88;;;0.70;99.90;;;;;;4168608;28;20045;-81
2023/01/22 00:23:57;;;;;;;12.60;5.95;;;0.70;99.90;;;;;;4170384;28;20049;-81
2023/01/22 00:26:03;;;;;;;13.30;5.05;;;1.30;99.90;;;;;;4152472;28;20057;-81
2023/01/22 00:28:04;;;;;;;15.10;6.10;;;0.60;99.90;;;;;;4168705;28;20188;-81
2023/01/22 00:30:06;;;;;;;15.23;5.50;;;0.40;99.90;;;;;;4152270;28;20521;-81
2023/01/22 00:32:07;;;;;;;13.50;5.35;;;0.60;99.90;;;;;;4175433;28;20120;-81
2023/01/22 00:34:09;;;;;;;10.88;5.43;;;0.80;99.90;;;;;;4184759;28;20067;-81
2023/01/22 00:36:14;;;;;;;15.25;5.80;;;0.50;99.90;;;;;;4186561;28;20056;-81
2023/01/22 00:38:15;;;;;;;13.38;5.07;;;0.50;99.90;;;;;;4185289;28;20040;-81
2023/01/22 00:40:16;;;;;;;12.13;5.57;;;0.50;99.90;;;;;;4186044;28;20087;-81
2023/01/22 00:42:19;;;;;;;11.85;4.70;;;0.40;99.90;;;;;;4168295;28;20081;-81
2023/01/22 00:44:20;;;;;;;17.95;5.15;;;0.50;99.90;;;;;;4185762;28;20064;-81
2023/01/22 00:46:22;;;;;;;12.07;5.53;;;0.70;99.90;;;;;;4186249;28;20409;-80
2023/01/22 00:48:23;;;;;;;10.77;5.60;;;0.50;99.90;;;;;;4181758;28;20502;-81
2023/01/22 00:50:24;;;;;;;10.68;4.72;;;0.50;99.90;;;;;;4185923;28;20066;-80
2023/01/22 00:52:26;;;;;;;12.57;5.22;;;0.70;99.90;;;;;;4185484;28;20073;-81
2023/01/22 00:54:26;;;;;;;13.90;6.00;;;1.20;99.90;;;;;;4185417;28;20036;-81
2023/01/22 00:56:28;;;;;;;12.88;5.85;;;0.60;99.90;;;;;;4168066;28;20399;-81
2023/01/22 00:58:31;;;;;;;12.85;6.32;;;0.60;99.90;;;;;;4184994;28;20044;-81
2023/01/22 01:00:33;;;;;;;15.23;5.82;;;1.40;99.90;;;;;;4167494;28;20071;-81
2023/01/22 01:03:25;;;;;;;12.43;5.63;;;0.70;99.90;;;;;;4167234;28;20486;-81
2023/01/22 01:05:00;;;;;;;15.98;5.47;;;1.30;99.90;;;;;;4184778;28;20095;-81
2023/01/22 01:07:02;;;;;;;16.17;6.07;;;0.60;99.90;;;;;;4180896;28;20128;-81
2023/01/22 01:09:04;;;;;;;12.85;5.25;;;0.60;99.90;;;;;;4183749;28;20044;-82
2023/01/22 01:11:08;;;;;;;13.40;5.70;;;0.60;99.90;;;;;;4184733;28;20067;-82
2023/01/22 01:13:10;;;;;;;15.13;5.82;;;0.70;99.90;;;;;;4167165;28;20128;-81
2023/01/22 01:15:12;;;;;;;12.48;5.05;;;0.70;99.90;;;;;;4184710;28;20059;-80
2023/01/22 01:17:14;;;;;;;16.67;5.93;;;0.70;99.90;;;;;;4167009;28;20418;-80
2023/01/22 01:19:18;;;;;;;14.52;5.90;;;0.70;99.90;;;;;;4182590;28;20074;-80
2023/01/22 01:21:19;;;;;;;13.02;4.75;;;1.00;99.90;;;;;;4185139;28;20048;-81
2023/01/22 01:23:23;;;;;;;14.07;5.93;;;0.70;99.90;;;;;;4182067;28;20045;-81
2023/01/22 01:25:25;;;;;;;13.73;5.72;;;1.50;99.90;;;;;;4201351;28;20052;-81
2023/01/22 01:27:30;;;;;;;12.30;5.97;;;0.70;99.90;;;;;;4188273;28;20041;-81
2023/01/22 01:29:32;;;;;;;14.57;6.70;;;0.70;99.90;;;;;;4188516;28;20081;-81
2023/01/22 01:31:33;;;;;;;10.88;5.32;;;0.70;99.90;;;;;;4170472;28;20053;-81
2023/01/22 01:33:34;;;;;;;12.80;5.85;;;0.70;99.90;;;;;;4170317;28;20103;-81
2023/01/22 01:35:36;;;;;;;12.02;5.95;;;1.50;99.90;;;;;;4186637;28;20429;-81
2023/01/22 01:37:38;;;;;;;17.63;5.80;;;1.70;99.90;;;;;;4203319;28;20048;-81
2023/01/22 01:39:39;;;;;;;13.45;5.80;;;0.70;99.90;;;;;;4181614;28;20068;-81
2023/01/22 01:41:41;;;;;;;16.33;6.38;;;1.60;99.90;;;;;;4204083;28;20052;-82
2023/01/22 01:43:42;;;;;;;14.20;5.22;;;0.60;99.90;;;;;;4187989;28;20049;-81
2023/01/22 01:45:43;;;;;;;10.27;4.50;;;2.10;99.90;;;;;;4186325;28;20056;-81
2023/01/22 01:47:53;;;;;;;11.32;5.30;;;1.70;99.90;;;;;;4188107;28;20567;-81
2023/01/22 01:49:54;;;;;;;12.52;5.22;;;0.60;99.90;;;;;;4187807;28;20116;-81
2023/01/22 01:52:00;;;;;;;11.90;5.53;;;1.60;99.90;;;;;;4187828;28;20055;-81
2023/01/22 01:54:03;;;;;;;12.75;6.55;;;0.70;99.90;;;;;;4169839;28;20518;-81
2023/01/22 01:56:12;;;;;;;12.73;5.95;;;0.60;99.90;;;;;;4169813;28;20053;-81
2023/01/22 01:58:20;;;;;;;11.63;5.60;;;0.60;99.90;;;;;;4186028;28;20049;-81
2023/01/22 02:00:21;;;;;;;14.80;6.20;;;1.70;99.90;;;;;;4171530;28;20058;-80
2023/01/22 02:02:23;;;;;;;11.95;5.13;;;1.10;99.90;;;;;;4170247;28;20049;-81
2023/01/22 02:04:27;;;;;;;11.38;5.13;;;0.60;99.90;;;;;;4187294;28;20053;-81
2023/01/22 02:06:28;;;;;;;12.05;6.60;;;1.50;99.90;;;;;;4169939;28;20107;-81
2023/01/22 02:08:30;;;;;;;12.20;5.03;;;0.60;99.90;;;;;;4186358;28;20049;-81
2023/01/22 02:10:32;;;;;;;13.48;5.93;;;0.60;99.90;;;;;;4169938;28;20049;-81
2023/01/22 02:12:34;;;;;;;15.23;6.50;;;0.60;99.90;;;;;;4186397;28;20402;-81
2023/01/22 02:14:39;;;;;;;12.60;5.50;;;0.60;99.90;;;;;;4185345;28;20052;-81
2023/01/22 02:16:40;;;;;;;14.32;5.43;;;0.60;99.90;;;;;;4152930;28;20058;-81
2023/01/22 02:18:41;;;;;;;17.60;6.18;;;1.60;99.90;;;;;;4170476;28;20053;-81
2023/01/22 02:20:56;;;;;;;13.75;6.30;;;0.80;99.90;;;;;;4170290;28;20041;-81
2023/01/22 02:22:57;;;;;;;16.58;6.78;;;0.60;99.90;;;;;;4170646;28;20046;-81
2023/01/22 02:24:59;;;;;;;12.27;6.28;;;0.70;99.90;;;;;;4170255;28;20037;-81
2023/01/22 02:27:01;;;;;;;12.85;6.10;;;0.70;99.90;;;;;;4170528;28;20066;-81
2023/01/22 02:29:06;;;;;;;12.57;6.57;;;1.50;99.90;;;;;;4169488;28;20045;-80
2023/01/22 02:31:07;;;;;;;12.55;5.80;;;0.70;99.90;;;;;;4169399;28;20053;-80
2023/01/22 02:33:09;;;;;;;16.23;5.93;;;0.70;99.90;;;;;;4176621;28;20092;-81
2023/01/22 02:35:11;;;;;;;17.00;6.32;;;0.70;99.90;;;;;;4185572;28;20053;-81
2023/01/22 02:37:12;;;;;;;14.77;6.05;;;2.10;99.90;;;;;;4167417;28;20150;-82
2023/01/22 02:39:14;;;;;;;14.85;5.80;;;2.60;99.90;;;;;;4186963;28;20037;-81
2023/01/22 02:41:15;;;;;;;10.90;5.32;;;0.70;99.90;;;;;;4169729;28;20116;-80
2023/01/22 02:43:17;;;;;;;10.52;4.60;;;0.70;99.90;;;;;;4185479;28;20497;-81
2023/01/22 02:45:18;;;;;;;11.98;5.35;;;0.70;99.90;;;;;;4185137;28;20484;-81
2023/01/22 02:47:20;;;;;;;13.88;6.10;;;0.70;99.90;;;;;;4168823;28;20049;-81
2023/01/22 02:49:21;;;;;;;10.35;4.97;;;0.70;99.90;;;;;;4168952;28;20515;-82
2023/01/22 02:51:25;;;;;;;12.90;5.32;;;1.70;99.90;;;;;;4183477;28;20036;-81
2023/01/22 02:53:26;;;;;;;9.13;4.40;;;0.70;99.90;;;;;;4170449;28;20471;-81
2023/01/22 02:55:26;;;;;;;10.63;4.30;;;0.70;99.90;;;;;;4169899;28;20136;-81
2023/01/22 02:57:30;;;;;;;8.30;3.88;;;1.90;99.90;;;;;;4169757;28;20057;-81
2023/01/22 02:59:30;;;;;;;8.52;3.83;;;0.70;99.90;;;;;;4170117;28;20084;-81
2023/01/22 03:01:31;;;;;;;7.53;3.92;;;0.70;99.90;;;;;;4170247;28;20197;-81
2023/01/22 03:03:34;;;;;;;9.00;3.80;;;0.70;99.90;;;;;;4170915;28;20037;-81
2023/01/22 03:05:34;;;;;;;12.95;4.20;;;0.70;99.90;;;;;;4170224;28;20465;-80
2023/01/22 03:07:41;;;;;;;8.32;4.03;;;0.70;99.90;;;;;;4152677;28;20103;-81
2023/01/22 03:09:44;;;;;;;5.78;2.55;;;0.70;99.90;;;;;;4174294;28;20060;-80
2023/01/22 03:11:46;;;;;;;21.92;4.50;;;0.70;99.90;;;;;;4186268;28;20053;-80
2023/01/22 03:23:08;;;;;;;9.10;2.58;;;0.70;99.90;;;;;;4187129;28;20045;-80
2023/01/22 03:25:09;;;;;;;5.75;3.00;;;0.70;99.90;;;;;;4185334;28;20059;-80
2023/01/22 03:27:10;;;;;;;5.25;2.17;;;0.90;99.90;;;;;;4173418;28;20061;-80
2023/01/22 03:29:11;;;;;;;4.53;2.28;;;1.70;99.90;;;;;;4169232;28;20422;-80
2023/01/22 03:31:14;;;;;;;5.93;2.47;;;0.70;99.90;;;;;;4168626;28;20054;-80
2023/01/22 03:33:15;;;;;;;8.30;2.55;;;0.70;99.90;;;;;;4169368;28;20049;-82
2023/01/22 03:35:16;;;;;;;4.93;2.65;;;1.80;99.90;;;;;;4168073;28;20100;-81
2023/01/22 03:37:18;;;;;;;5.32;3.13;;;0.80;99.90;;;;;;4167841;28;20044;-81
2023/01/22 03:39:19;;;;;;;6.60;3.10;;;0.80;99.90;;;;;;4151459;28;20049;-80
2023/01/22 03:41:20;;;;;;;6.43;2.50;;;1.00;99.90;;;;;;4169376;28;20049;-81
2023/01/22 03:43:22;;;;;;;5.32;3.03;;;0.80;99.90;;;;;;4167695;28;20042;-82
2023/01/22 03:45:24;;;;;;;5.97;2.50;;;0.80;99.90;;;;;;4175528;28;20485;-81
2023/01/22 03:47:24;;;;;;;5.88;2.70;;;0.80;99.90;;;;;;4185354;28;20041;-81
2023/01/22 03:49:26;;;;;;;6.13;3.20;;;0.80;99.90;;;;;;4185008;28;20056;-81
2023/01/22 03:51:29;;;;;;;4.95;2.92;;;0.80;99.90;;;;;;4185799;28;20486;-81
2023/01/22 03:53:30;;;;;;;6.57;2.65;;;0.80;99.90;;;;;;4185476;28;20150;-82
2023/01/22 03:55:30;;;;;;;5.25;2.67;;;0.80;99.90;;;;;;4167623;28;20119;-82
2023/01/22 03:57:31;;;;;;;7.18;2.92;;;1.80;99.90;;;;;;4168158;28;20095;-82
2023/01/22 03:59:33;;;;;;;4.13;2.60;;;0.90;99.90;;;;;;4184480;28;20047;-82
2023/01/22 04:01:34;;;;;;;7.47;2.88;;;0.90;99.90;;;;;;4183116;28;20064;-81
2023/01/22 04:03:36;;;;;;;9.52;2.90;;;0.90;99.90;;;;;;4168023;28;20484;-81
2023/01/22 04:05:38;;;;;;;6.60;2.47;;;0.90;99.90;;;;;;4183673;28;20529;-80
2023/01/22 04:07:39;;;;;;;5.95;2.70;;;0.90;99.90;;;;;;4185279;28;20049;-81
2023/01/22 04:09:40;;;;;;;5.20;2.65;;;0.90;99.90;;;;;;4184878;28;20053;-80
2023/01/22 04:11:42;;;;;;;4.72;2.42;;;1.30;99.90;;;;;;4185673;28;20056;-81
2023/01/22 04:13:43;;;;;;;5.35;2.58;;;0.90;99.90;;;;;;4185004;28;20070;-81
2023/01/22 04:15:45;;;;;;;8.98;2.88;;;0.90;99.90;;;;;;4167098;28;20596;-81
2023/01/22 04:17:45;;;;;;;9.15;3.03;;;0.90;99.90;;;;;;4183761;28;20489;-81
2023/01/22 04:19:46;;;;;;;5.28;2.42;;;0.90;99.90;;;;;;4184543;28;20076;-81
2023/01/22 04:21:48;;;;;;;6.00;3.33;;;1.30;99.90;;;;;;4185896;28;20118;-80
2023/01/22 04:23:49;;;;;;;5.72;2.72;;;1.60;99.90;;;;;;4184577;28;20049;-80
2023/01/22 04:25:51;;;;;;;6.97;3.15;;;0.90;99.90;;;;;;4183237;28;20131;-81
2023/01/22 04:27:51;;;;;;;6.53;2.67;;;1.50;99.90;;;;;;4185036;28;20045;-81
2023/01/22 04:29:52;;;;;;;7.70;3.42;;;1.00;99.90;;;;;;4183924;28;20059;-81
2023/01/22 04:31:53;;;;;;;7.40;2.47;;;1.20;99.90;;;;;;4188640;28;20075;-79
2023/01/22 04:33:54;;;;;;;11.65;3.08;;;1.00;99.90;;;;;;4194127;28;20131;-79
2023/01/22 04:35:54;;;;;;;7.70;2.83;;;1.00;99.90;;;;;;4192820;28;20583;-80
2023/01/22 04:37:58;;;;;;;6.47;2.67;;;1.60;99.90;;;;;;4187269;28;20095;-80
2023/01/22 04:39:58;;;;;;;7.30;3.53;;;1.90;99.90;;;;;;4182691;28;20044;-80
2023/01/22 04:42:00;;;;;;;5.40;2.88;;;0.70;99.90;;;;;;4184733;28;20079;-80
2023/01/22 04:44:01;;;;;;;8.55;2.60;;;1.10;99.90;;;;;;4183671;28;20060;-80
2023/01/22 04:46:02;;;;;;;6.35;2.78;;;1.10;99.90;;;;;;4199992;28;20100;-81
2023/01/22 04:48:03;;;;;;;6.20;2.60;;;1.00;99.90;;;;;;4167288;28;20088;-81
2023/01/22 04:50:05;;;;;;;4.82;2.65;;;1.10;99.90;;;;;;4183052;28;20049;-81
2023/01/22 04:52:06;;;;;;;4.22;2.22;;;1.10;99.90;;;;;;4184667;28;20051;-81
2023/01/22 04:54:07;;;;;;;7.13;3.05;;;1.10;99.90;;;;;;4184828;28;20128;-81
2023/01/22 04:56:08;;;;;;;6.38;2.47;;;2.00;99.90;;;;;;4171720;28;20100;-81
2023/01/22 04:58:10;;;;;;;5.80;2.95;;;1.50;99.90;;;;;;4168427;28;20663;-80
2023/01/22 05:00:12;;;;;;;7.28;3.00;;;1.70;99.90;;;;;;4166017;28;20096;-80
2023/01/22 05:02:13;;;;;;;12.25;2.88;;;1.10;99.90;;;;;;4168154;28;20050;-81
2023/01/22 05:04:15;;;;;;;5.47;3.17;;;1.50;99.90;;;;;;4167760;28;20526;-80
2023/01/22 05:06:16;;;;;;;5.72;2.63;;;1.10;99.90;;;;;;4167089;28;20045;-81
2023/01/22 05:08:18;;;;;;;4.25;2.25;;;1.80;99.90;;;;;;4166926;28;20560;-81
2023/01/22 05:10:19;;;;;;;7.78;2.83;;;1.10;99.90;;;;;;4168285;28;20053;-80
2023/01/22 05:12:19;;;;;;;5.32;2.80;;;1.50;99.90;;;;;;4165732;28;20057;-81
2023/01/22 05:14:22;;;;;;;7.28;2.40;;;1.80;99.90;;;;;;4166901;28;20525;-80
2023/01/22 05:16:23;;;;;;;6.28;3.00;;;1.20;99.90;;;;;;4184061;28;20052;-81
2023/01/22 05:18:25;;;;;;;6.82;3.13;;;1.10;99.90;;;;;;4183521;28;20049;-81
2023/01/22 05:20:26;;;;;;;3.33;2.28;;;1.10;99.90;;;;;;4184072;28;20045;-81
2023/01/22 05:22:26;;;;;;;7.55;2.83;;;1.30;99.90;;;;;;4168649;28;20045;-81
2023/01/22 05:24:28;;;;;;;8.65;2.80;;;1.10;99.90;;;;;;4168797;28;20093;-81
2023/01/22 05:26:30;;;;;;;5.65;2.65;;;1.10;99.90;;;;;;4168497;28;20128;-81
2023/01/22 05:28:32;;;;;;;7.55;2.50;;;1.10;99.90;;;;;;4185773;28;20453;-81
2023/01/22 05:30:32;;;;;;;6.00;2.35;;;1.10;99.90;;;;;;4182300;28;20421;-81
2023/01/22 05:32:34;;;;;;;5.80;2.65;;;1.10;99.90;;;;;;4166777;28;20042;-81
2023/01/22 05:34:37;;;;;;;6.90;3.10;;;1.10;99.90;;;;;;4168877;28;20045;-81
2023/01/22 05:36:38;;;;;;;5.28;3.13;;;1.60;99.90;;;;;;4167878;28;20143;-81
2023/01/22 05:38:41;;;;;;;7.07;3.17;;;1.80;99.90;;;;;;4167050;28;20045;-81
2023/01/22 05:40:44;;;;;;;5.03;2.70;;;1.10;99.90;;;;;;4167023;28;20049;-81
2023/01/22 05:42:46;;;;;;;7.95;3.47;;;1.20;99.90;;;;;;4167782;28;20041;-81
2023/01/22 05:44:49;;;;;;;6.03;2.95;;;1.40;99.90;;;;;;4167853;28;20052;-81
2023/01/22 05:46:50;;;;;;;9.00;2.90;;;2.50;99.90;;;;;;4171762;28;20045;-81
2023/01/22 05:48:57;;;;;;;6.68;3.10;;;1.20;99.90;;;;;;4185118;28;20084;-82
2023/01/22 05:51:05;;;;;;;6.28;3.28;;;1.10;99.90;;;;;;4166757;28;20431;-81
2023/01/22 05:53:07;;;;;;;5.43;2.78;;;1.10;99.90;;;;;;4166264;28;20093;-81
2023/01/22 05:55:08;;;;;;;4.40;2.50;;;1.80;99.90;;;;;;4184152;28;20052;-81
2023/01/22 05:57:11;;;;;;;4.68;3.00;;;1.10;99.90;;;;;;4183860;28;20053;-81
2023/01/22 05:59:12;;;;;;;7.18;3.45;;;1.10;99.90;;;;;;4184390;28;20117;-81
2023/01/22 06:01:13;;;;;;;6.68;2.38;;;1.10;99.90;;;;;;4176675;28;20045;-82
2023/01/22 06:03:15;;;;;;;7.10;2.50;;;1.10;99.90;;;;;;4168089;28;20041;-81
2023/01/22 06:05:22;;;;;;;4.80;2.58;;;1.10;99.90;;;;;;4167042;28;20494;-82
2023/01/22 06:07:25;;;;;;;4.90;2.35;;;1.10;99.90;;;;;;4177806;28;20045;-81
2023/01/22 06:09:27;;;;;;;5.63;3.17;;;1.30;99.90;;;;;;4183902;28;20087;-81
2023/01/22 06:11:31;;;;;;;5.63;2.63;;;1.00;99.90;;;;;;4185968;28;20045;-81
2023/01/22 06:13:33;;;;;;;6.57;3.25;;;1.80;99.90;;;;;;4186395;28;20135;-81
2023/01/22 06:15:36;;;;;;;7.82;2.97;;;1.80;99.90;;;;;;4186904;28;20119;-81
2023/01/22 06:17:37;;;;;;;4.90;2.42;;;1.00;99.90;;;;;;4172593;28;20100;-80
2023/01/22 06:19:39;;;;;;;6.65;3.15;;;1.00;99.90;;;;;;4187842;28;20107;-80
2023/01/22 06:21:42;;;;;;;6.40;3.28;;;1.00;99.90;;;;;;4186965;28;20064;-80
2023/01/22 06:23:45;;;;;;;6.65;2.97;;;1.00;99.90;;;;;;4176035;28;20049;-80
2023/01/22 06:25:51;;;;;;;6.70;3.20;;;1.00;99.90;;;;;;4171384;28;20417;-79
2023/01/22 06:27:52;;;;;;;6.22;3.13;;;2.60;99.90;;;;;;4170473;28;20048;-80
2023/01/22 06:29:53;;;;;;;6.03;3.00;;;1.90;99.90;;;;;;4153846;28;20045;-80
2023/01/22 06:31:54;;;;;;;5.15;2.78;;;1.00;99.90;;;;;;4171009;28;20456;-80
2023/01/22 06:33:55;;;;;;;10.75;3.50;;;1.00;99.90;;;;;;4170916;28;20044;-81
2023/01/22 06:35:56;;;;;;;7.32;2.80;;;1.00;99.90;;;;;;4157714;28;20524;-81
2023/01/22 06:37:57;;;;;;;8.90;2.92;;;2.10;99.90;;;;;;4154075;28;20050;-81
2023/01/22 06:39:58;;;;;;;5.75;3.00;;;2.20;99.90;;;;;;4197674;28;20562;-81
2023/01/22 06:41:59;;;;;;;10.25;3.60;;;2.20;99.90;;;;;;4171465;28;20504;-81
2023/01/22 06:44:01;;;;;;;5.13;3.10;;;1.00;99.90;;;;;;4170832;28;20148;-81
2023/01/22 06:46:02;;;;;;;5.10;3.30;;;1.00;99.90;;;;;;4171852;28;20037;-81
2023/01/22 06:48:04;;;;;;;5.03;2.90;;;1.00;99.90;;;;;;4170656;28;20037;-81
2023/01/22 06:50:05;;;;;;;6.05;3.17;;;1.00;99.90;;;;;;4170891;28;20052;-81
2023/01/22 06:52:07;;;;;;;6.32;3.22;;;0.90;99.90;;;;;;4171182;28;20101;-81
2023/01/22 06:54:12;;;;;;;7.82;2.83;;;1.00;99.90;;;;;;4175943;28;20045;-81
2023/01/22 06:56:13;;;;;;;5.78;3.58;;;1.00;99.90;;;;;;4169112;28;20065;-81
2023/01/22 06:58:15;;;;;;;7.55;3.33;;;2.00;99.90;;;;;;4168982;28;20418;-81
2023/01/22 07:00:16;;;;;;;6.90;3.53;;;1.00;99.90;;;;;;4170022;28;20048;-81
2023/01/22 07:02:18;;;;;;;7.50;4.05;;;0.90;99.90;;;;;;4170371;28;20080;-81
2023/01/22 07:04:20;;;;;;;6.72;3.60;;;2.00;99.90;;;;;;4153211;28;20061;-81
2023/01/22 07:06:21;;;;;;;5.53;3.20;;;1.90;99.90;;;;;;4180119;28;20048;-81
2023/01/22 07:08:23;;;;;;;6.07;3.13;;;0.90;99.90;;;;;;4153662;28;20608;-81
2023/01/22 07:10:23;;;;;;;6.22;3.75;;;1.00;99.90;;;;;;4153637;28;20041;-80
2023/01/22 07:12:24;;;;;;;7.15;3.97;;;0.90;99.90;;;;;;4182792;28;20048;-81
2023/01/22 07:14:26;;;;;;;7.50;3.83;;;0.90;99.90;;;;;;4169864;28;20054;-81
2023/01/22 07:16:28;;;;;;;10.30;4.65;;;0.90;99.90;;;;;;4186554;28;20101;-81
2023/01/22 07:18:30;;;;;;;7.95;3.50;;;0.90;99.90;;;;;;4187130;28;20037;-81
2023/01/22 07:20:31;;;;;;;6.78;4.13;;;0.90;99.90;;;;;;4186209;28;20045;-81
2023/01/22 07:22:32;;;;;;;8.65;4.07;;;2.00;99.90;;;;;;4186856;28;20045;-80
2023/01/22 07:24:33;;;;;;;7.55;4.10;;;0.90;99.90;;;;;;4186110;28;20044;-81
2023/01/22 07:26:35;;;;;;;8.18;3.67;;;0.90;99.90;;;;;;4169612;28;20045;-80
2023/01/22 07:28:37;;;;;;;7.22;3.67;;;1.30;99.90;;;;;;4186984;28;20490;-80
2023/01/22 07:30:42;;;;;;;8.35;4.22;;;1.10;99.90;;;;;;4186269;28;20041;-80
2023/01/22 07:32:42;;;;;;;8.95;3.90;;;0.90;99.90;;;;;;4185938;28;20057;-80
2023/01/22 07:34:44;;;;;;;6.13;4.00;;;0.90;99.90;;;;;;4186322;28;20069;-81
2023/01/22 07:36:46;;;;;;;7.13;4.35;;;1.80;99.90;;;;;;4185197;28;20053;-81
2023/01/22 07:38:47;;;;;;;5.75;3.85;;;0.90;99.90;;;;;;4186010;28;20150;-80
2023/01/22 07:40:50;;;;;;;9.20;4.07;;;1.60;99.90;;;;;;4185436;28;20398;-80
2023/01/22 07:42:52;;;;;;;10.27;4.20;;;0.90;99.90;;;;;;4184480;28;20041;-80
2023/01/22 07:44:53;;;;;;;8.27;4.60;;;1.50;99.90;;;;;;4184801;28;20481;-80
2023/01/22 07:46:54;;;;;;;9.65;5.05;;;0.90;99.90;;;;;;4184603;28;20041;-80
2023/01/22 07:48:55;;;;;;;7.22;4.03;;;1.00;99.90;;;;;;4184320;28;20044;-82
2023/01/22 07:51:05;;;;;;;7.63;4.38;;;1.60;99.90;;;;;;4185993;28;20425;-81
2023/01/22 07:53:07;;;;;;;10.63;4.13;;;0.80;99.90;;;;;;4168465;28;20060;-81
2023/01/22 07:55:08;;;;;;;10.77;3.95;;;0.80;99.90;;;;;;4184735;28;20492;-80
2023/01/22 07:57:14;;;;;;;8.25;4.30;;;0.80;99.90;;;;;;4186313;28;20048;-83
2023/01/22 07:59:16;;;;;;;6.85;3.85;;;0.80;99.90;;;;;;4184550;28;20045;-81
2023/01/22 08:01:16;;;;;;;8.43;4.43;;;1.50;99.90;;;;;;4180856;28;20037;-81
2023/01/22 08:03:26;;;;;;;7.38;4.13;;;0.80;99.90;;;;;;4180417;28;20127;-79
2023/01/22 08:05:27;;;;;;;8.63;4.45;;;0.80;99.90;;;;;;4169135;28;20041;-80
2023/01/22 08:07:29;;;;;;;6.72;3.88;;;1.50;99.90;;;;;;4186966;28;20133;-79
2023/01/22 08:09:30;;;;;;;8.02;4.68;;;0.80;99.90;;;;;;4186971;28;20045;-80
2023/01/22 08:11:31;;;;;;;6.40;4.13;;;0.70;99.90;;;;;;4186849;28;20455;-80
2023/01/22 08:13:32;;;;;;;5.43;3.88;;;0.80;99.90;;;;;;4186073;28;20057;-80
2023/01/22 08:15:32;;;;;;;8.68;4.32;;;0.30;99.90;;;;;;4186356;28;20044;-80
2023/01/22 08:17:37;;;;;;;7.53;4.28;;;0.80;99.90;;;;;;4170353;28;20576;-79
2023/01/22 08:19:37;;;;;;;7.68;3.60;;;0.80;99.90;;;;;;4171310;28;20081;-80
2023/01/22 08:21:42;;;;;;;9.20;4.28;;;2.20;99.90;;;;;;4170019;28;20078;-81
2023/01/22 08:23:43;;;;;;;7.25;4.32;;;0.80;99.90;;;;;;4168105;28;20053;-81
2023/01/22 08:25:44;;;;;;;7.60;3.97;;;0.80;99.90;;;;;;4167891;28;20041;-81
2023/01/22 08:27:47;;;;;;;5.32;3.47;;;0.80;99.90;;;;;;4170953;28;20040;-82
2023/01/22 08:29:48;;;;;;;6.65;3.92;;;0.80;99.90;;;;;;4171172;28;20049;-82
2023/01/22 08:31:51;;;;;;;6.13;3.60;;;0.80;99.90;;;;;;4151852;28;20125;-82
2023/01/22 08:33:52;;;;;;;8.75;3.70;;;1.00;99.90;;;;;;4169368;28;20124;-81
2023/01/22 08:35:53;;;;;;;6.68;3.70;;;0.70;99.90;;;;;;4168250;28;20521;-81
2023/01/22 08:37:59;;;;;;;5.95;3.20;;;0.80;99.90;;;;;;4170921;28;20049;-88
2023/01/22 08:40:00;;;;;;;9.45;4.05;;;0.80;99.90;;;;;;4170122;28;20049;-80
2023/01/22 08:42:02;;;;;;;8.05;3.75;;;0.70;99.90;;;;;;4161205;28;20173;-80
2023/01/22 08:44:04;;;;;;;7.25;3.53;;;0.80;99.90;;;;;;4185772;28;20045;-80
2023/01/22 08:46:05;;;;;;;6.10;3.40;;;0.70;99.90;;;;;;4186382;28;20127;-80
2023/01/22 08:48:06;;;;;;;5.88;3.03;;;1.30;99.90;;;;;;4175890;28;20075;-80
2023/01/22 08:50:07;;;;;;;6.25;3.53;;;0.70;99.90;;;;;;4162517;28;20045;-81
2023/01/22 08:52:09;;;;;;;10.18;3.42;;;0.80;99.90;;;;;;4187441;28;20508;-81
2023/01/22 08:54:10;;;;;;;6.15;3.42;;;0.80;99.90;;;;;;4187551;28;20120;-80
2023/01/22 08:56:12;;;;;;;10.48;3.80;;;1.00;99.90;;;;;;4185244;28;20068;-81
2023/01/22 08:58:13;;;;;;;6.82;3.35;;;0.80;99.90;;;;;;4185666;28;20147;-81
2023/01/22 09:00:15;;;;;;;7.07;3.90;;;0.90;99.90;;;;;;4155608;28;20057;-81
2023/01/22 09:02:18;;;;;;;6.65;3.85;;;0.90;99.90;;;;;;4154420;28;20529;-80
2023/01/22 09:04:20;;;;;;;5.80;3.30;;;0.80;99.90;;;;;;4179716;28;20536;-81
2023/01/22 09:06:25;;;;;;;8.30;3.80;;;0.90;99.90;;;;;;4153139;28;20046;-80
2023/01/22 09:08:27;;;;;;;6.38;3.58;;;0.90;99.90;;;;;;4176273;28;20206;-82
2023/01/22 09:10:28;;;;;;;5.50;3.50;;;0.90;99.90;;;;;;4185260;28;20056;-82
2023/01/22 09:12:28;;;;;;;13.10;3.92;;;0.90;99.90;;;;;;4167639;28;20060;-82
2023/01/22 09:14:31;;;;;;;7.97;3.58;;;1.00;99.90;;;;;;4184850;28;20041;-82
2023/01/22 09:16:32;;;;;;;11.35;3.60;;;1.10;99.90;;;;;;4183921;28;20045;-81
2023/01/22 09:18:34;;;;;;;7.28;3.67;;;1.50;99.90;;;;;;4167486;28;20518;-81
2023/01/22 09:20:35;;;;;;;7.80;3.60;;;2.70;99.90;;;;;;4184347;28;20049;-81
2023/01/22 09:22:38;;;;;;;14.40;3.95;;;1.30;99.90;;;;;;4166855;28;20486;-82
2023/01/22 09:24:38;;;;;;;6.43;3.42;;;1.40;99.90;;;;;;4184349;28;20095;-81
2023/01/22 09:26:40;;;;;;;7.15;3.95;;;1.70;99.90;;;;;;4172129;28;20057;-81
2023/01/22 09:28:41;;;;;;;8.23;3.83;;;0.90;99.90;;;;;;4165042;28;20135;-81
2023/01/22 09:30:44;;;;;;;5.28;3.28;;;1.60;99.90;;;;;;4183674;28;20517;-82
2023/01/22 09:32:45;;;;;;;4.57;3.10;;;1.90;99.90;;;;;;4166213;28;20049;-82
2023/01/22 09:34:47;;;;;;;5.43;2.95;;;1.80;99.90;;;;;;4183375;28;20041;-81
2023/01/22 09:36:48;;;;;;;5.53;2.97;;;1.90;99.90;;;;;;4183237;28;20045;-81
2023/01/22 09:38:50;;;;;;;7.55;3.63;;;0.30;99.90;;;;;;4183739;28;20511;-82
2023/01/22 09:40:58;;;;;;;10.60;3.08;;;3.50;99.90;;;;;;4166237;28;20403;-82
2023/01/22 09:43:24;;;;;;;7.72;3.30;;;2.10;99.90;;;;;;4183523;28;20053;-82
2023/01/22 09:45:26;;;;;;;4.95;2.92;;;3.60;99.90;;;;;;4179084;28;20422;-81
2023/01/22 09:47:39;;;;;;;6.55;3.70;;;2.20;99.90;;;;;;4169534;28;20046;-81
2023/01/22 09:49:40;;;;;;;6.35;3.65;;;2.10;99.90;;;;;;4154429;28;20045;-82
2023/01/22 09:52:03;;;;;;;7.03;3.38;;;2.90;99.90;;;;;;4171146;28;20401;-81
2023/01/22 09:54:07;;;;;;;5.10;2.92;;;2.00;99.90;;;;;;4172195;28;20113;-81
2023/01/22 09:56:21;;;;;;;9.27;4.18;;;0.50;99.90;;;;;;4172316;28;20518;-82
2023/01/22 09:58:24;;;;;;;6.93;3.28;;;2.90;99.90;;;;;;4172823;28;20116;-81
2023/01/22 10:01:03;;;;;;;8.77;3.92;;;2.10;99.90;;;;;;4158830;28;20125;-82
2023/01/22 10:03:31;;;;;;;8.15;3.33;;;2.00;99.90;;;;;;4149130;28;20026;-82
2023/01/22 10:05:45;;;;;;;8.52;3.90;;;2.10;99.90;;;;;;4194879;28;20049;-82
2023/01/22 10:07:53;;;;;;;6.22;3.70;;;2.30;99.90;;;;;;4199129;28;20060;-82
2023/01/22 10:09:59;;;;;;;5.32;3.42;;;0.60;99.90;;;;;;4195594;28;20489;-82
2023/01/22 10:12:25;;;;;;;10.32;3.42;;;2.00;99.90;;;;;;4173895;28;20084;-82
2023/01/22 10:14:29;;;;;;;5.63;3.30;;;2.00;99.90;;;;;;4189324;28;20118;-81
2023/01/22 10:16:29;;;;;;;8.70;3.30;;;3.00;99.90;;;;;;4188570;28;20144;-81
2023/01/22 10:18:40;;;;;;;6.20;3.00;;;2.10;99.90;;;;;;4160444;28;20053;-81
2023/01/22 10:20:42;;;;;;;8.27;3.53;;;2.70;99.90;;;;;;4171656;28;20045;-82
2023/01/22 10:22:44;;;;;;;6.40;2.88;;;3.00;99.90;;;;;;4178322;28;20131;-81
2023/01/22 10:24:45;;;;;;;4.97;3.08;;;2.10;99.90;;;;;;4187503;28;20051;-82
2023/01/22 10:26:51;;;;;;;4.85;2.80;;;2.10;99.90;;;;;;4185324;28;20059;-82
2023/01/22 10:28:55;;;;;;;5.60;3.13;;;2.20;99.90;;;;;;4185360;28;20132;-82
2023/01/22 10:31:02;;;;;;;5.13;2.78;;;2.70;99.90;;;;;;4186503;28;20083;-82
2023/01/22 10:33:05;;;;;;;6.30;3.10;;;2.90;99.90;;;;;;4187193;28;20052;-82
2023/01/22 10:35:18;;;;;;;7.20;2.47;;;2.20;99.90;;;;;;4186799;28;20563;-82
2023/01/22 10:37:18;;;;;;;5.93;2.75;;;2.30;99.90;;;;;;4187083;28;20470;-82
2023/01/22 10:39:20;;;;;;;5.65;2.78;;;2.30;99.90;;;;;;4186333;28;20040;-81
2023/01/22 10:41:21;;;;;;;5.80;3.00;;;2.30;99.90;;;;;;4186583;28;20060;-81
2023/01/22 10:43:31;;;;;;;5.30;2.72;;;2.40;99.90;;;;;;4185938;28;20532;-80
2023/01/22 10:45:32;;;;;;;9.43;3.42;;;2.60;99.90;;;;;;4186553;28;20393;-82
2023/01/22 10:47:33;;;;;;;6.72;3.05;;;2.40;99.90;;;;;;4185717;28;20103;-82
2023/01/22 10:49:36;;;;;;;7.18;2.72;;;2.50;99.90;;;;;;4184624;28;20171;-82
2023/01/22 10:51:40;;;;;;;5.68;2.58;;;2.50;99.90;;;;;;4184778;28;20467;-82
2023/01/22 10:53:53;;;;;;;4.97;3.22;;;2.50;99.90;;;;;;4185262;28;20396;-82